This is the latest recevied weather packets stored in our database for station/object VY2CRA-4. If no packets are shown the sender has not sent any weather packets the latest 10 day(s).
| Time | Temp. | Humidity | Pressure | Rain* | Wind** | Luminosity | Snow |
|---|---|---|---|---|---|---|---|
| 1777289883 | 19.44° C | 20% | 1022.9 hPa | 0 mm | - | - | - |
| 1777288681 | 13.33° C | 35% | 1022.9 hPa | 0 mm | - | - | - |
| 1777287480 | 10° C | 43% | 1022.9 hPa | 0 mm | - | - | - |
| 1777286279 | 7.22° C | 47% | 1022.8 hPa | 0 mm | - | - | - |
| 1777285078 | 6.67° C | 49% | 1022.7 hPa | 0 mm | - | - | - |
| 1777283877 | 4.44° C | 52% | 1022.5 hPa | 0 mm | - | - | - |
| 1777282676 | 3.89° C | 53% | 1022.3 hPa | 0 mm | - | - | - |
| 1777281477 | 3.33° C | 53% | 1022.2 hPa | 0 mm | - | - | - |
| 1777280276 | 3.33° C | 54% | 1021.9 hPa | 0 mm | - | - | - |
| 1777279075 | 3.33° C | 54% | 1021.9 hPa | 0 mm | - | - | - |
| 1777277874 | 2.78° C | 53% | 1021.5 hPa | 0 mm | - | - | - |
| 1777276672 | 2.78° C | 53% | 1021.3 hPa | 0 mm | - | - | - |
| 1777275470 | 2.78° C | 54% | 1021.2 hPa | 0 mm | - | - | - |
| 1777273069 | 2.78° C | 52% | 1021 hPa | 0 mm | - | - | - |
| 1777271868 | 2.78° C | 52% | 1020.8 hPa | 0 mm | - | - | - |
| 1777270667 | 2.78° C | 51% | 1020.7 hPa | 0 mm | - | - | - |
| 1777269466 | 2.78° C | 51% | 1020.3 hPa | 0 mm | - | - | - |
| 1777268265 | 3.33° C | 51% | 1020.3 hPa | 0 mm | - | - | - |
| 1777267064 | 3.33° C | 50% | 1020.1 hPa | 0 mm | - | - | - |
| 1777265863 | 3.89° C | 50% | 1020.1 hPa | 0 mm | - | - | - |
| 1777264662 | 3.89° C | 50% | 1020.2 hPa | 0 mm | - | - | - |
| 1777263461 | 3.89° C | 49% | 1020.2 hPa | 0 mm | - | - | - |
| 1777262260 | 4.44° C | 49% | 1020.1 hPa | 0 mm | - | - | - |
| 1777261059 | 4.44° C | 48% | 1019.9 hPa | 0 mm | - | - | - |
| 1777259859 | 5° C | 47% | 1019.7 hPa | 0 mm | - | - | - |
* Rain since midnight (hover to see other rain measurements)
** Current wind speed in m/s (hover to see current wind gust speed)